Time;durP1;ratioP1;P1;durP2;ratioP2;P2;SDS_P1;SDS_P2;PMS_P1;PMS_P2;Temp;Humidity;BMP_temperature;BMP_pressure;BME280_temperature;BME280_humidity;BME280_pressure;Samples;Min_cycle;Max_cycle;Signal;HPM_P1;HPM_P2
2024/02/09 00:01:15;;;;;;;5.05;4.65;;;;;;;;;;4925748;29;20550;-67
2024/02/09 00:03:41;;;;;;;5.47;4.97;;;;;;;;;;4923023;29;20036;-65
2024/02/09 00:06:08;;;;;;;5.78;5.25;;;;;;;;;;4926820;29;20079;-66
2024/02/09 00:08:36;;;;;;;11.90;7.90;;;;;;;;;;4924823;29;20040;-66
2024/02/09 00:11:02;;;;;;;9.32;7.82;;;;;;;;;;4920621;29;20044;-66
2024/02/09 00:13:28;;;;;;;9.55;7.03;;;;;;;;;;4922431;29;20302;-67
2024/02/09 00:15:55;;;;;;;7.70;6.15;;;;;;;;;;4923280;29;20032;-66
2024/02/09 00:18:22;;;;;;;10.32;6.30;;;;;;;;;;4924637;29;20060;-66
2024/02/09 00:20:50;;;;;;;7.85;6.10;;;;;;;;;;4925106;29;20039;-65
2024/02/09 00:23:18;;;;;;;5.88;4.85;;;;;;;;;;4922168;29;20036;-66
2024/02/09 00:25:44;;;;;;;9.63;7.20;;;;;;;;;;4936812;29;20499;-65
2024/02/09 00:28:11;;;;;;;11.75;8.32;;;;;;;;;;4924385;29;20032;-66
2024/02/09 00:30:41;;;;;;;6.15;5.30;;;;;;;;;;4928386;29;20126;-66
2024/02/09 00:33:10;;;;;;;6.95;5.75;;;;;;;;;;4926597;29;20040;-66
2024/02/09 00:35:36;;;;;;;8.98;5.45;;;;;;;;;;4925293;29;20134;-65
2024/02/09 00:38:02;;;;;;;11.05;4.25;;;;;;;;;;4923301;29;20036;-65
2024/02/09 00:40:34;;;;;;;9.27;8.02;;;;;;;;;;4923768;29;20036;-65
2024/02/09 00:43:03;;;;;;;8.25;5.38;;;;;;;;;;4924332;29;20036;-65
2024/02/09 00:45:30;;;;;;;5.85;5.30;;;;;;;;;;4923747;29;20126;-66
2024/02/09 00:48:00;;;;;;;5.05;4.57;;;;;;;;;;4924763;29;20463;-66
2024/02/09 00:50:26;;;;;;;9.88;6.45;;;;;;;;;;4922705;29;20031;-66
2024/02/09 00:52:52;;;;;;;7.50;6.80;;;;;;;;;;4922945;29;20051;-66
2024/02/09 00:55:18;;;;;;;5.57;5.13;;;;;;;;;;4923381;29;20119;-66
2024/02/09 00:57:44;;;;;;;26.88;7.72;;;;;;;;;;4922909;29;20035;-66
2024/02/09 01:00:13;;;;;;;12.15;5.82;;;;;;;;;;4924152;29;20028;-67
2024/02/09 01:02:40;;;;;;;5.75;5.25;;;;;;;;;;4920228;29;20079;-66
2024/02/09 01:05:06;;;;;;;10.68;4.82;;;;;;;;;;4927049;29;20028;-66
2024/02/09 01:07:32;;;;;;;8.15;6.80;;;;;;;;;;4904443;29;20042;-66
2024/02/09 01:09:57;;;;;;;10.88;8.18;;;;;;;;;;4922553;29;20040;-65
2024/02/09 02:45:27;;;;;;;3.85;3.55;;;;;;;;;;4921615;29;20091;-66
2024/02/09 03:04:21;;;;;;;9.02;5.13;;;;;;;;;;4921939;29;20418;-66
2024/02/09 03:06:47;;;;;;;10.80;7.03;;;;;;;;;;4920643;29;20040;-66
2024/02/09 03:09:13;;;;;;;5.78;3.83;;;;;;;;;;4921460;29;20035;-67
2024/02/09 03:11:39;;;;;;;6.05;4.93;;;;;;;;;;4925622;29;20434;-65
2024/02/09 03:14:05;;;;;;;9.18;8.10;;;;;;;;;;4918880;29;20028;-67
2024/02/09 03:16:31;;;;;;;4.90;4.53;;;;;;;;;;4920923;29;20746;-66
2024/02/09 03:18:57;;;;;;;4.63;4.22;;;;;;;;;;4922080;29;20059;-66
2024/02/09 03:21:26;;;;;;;8.98;7.07;;;;;;;;;;4919587;29;20561;-67
2024/02/09 03:23:56;;;;;;;7.97;4.85;;;;;;;;;;4923427;29;20039;-65
2024/02/09 03:26:25;;;;;;;5.72;5.18;;;;;;;;;;4924136;29;20553;-66
2024/02/09 03:28:51;;;;;;;6.18;3.58;;;;;;;;;;4923520;29;20515;-65
2024/02/09 03:31:17;;;;;;;10.15;7.43;;;;;;;;;;4929209;29;20039;-66
2024/02/09 03:33:43;;;;;;;10.98;4.68;;;;;;;;;;4922517;29;20058;-65
2024/02/09 03:36:09;;;;;;;11.18;5.47;;;;;;;;;;4926544;29;20499;-66
2024/02/09 03:38:35;;;;;;;11.00;5.07;;;;;;;;;;4924403;29;20036;-66
2024/02/09 03:41:01;;;;;;;5.18;4.78;;;;;;;;;;4923816;29;20042;-64
2024/02/09 03:43:27;;;;;;;7.20;4.63;;;;;;;;;;4929323;29;20032;-66
2024/02/09 03:45:53;;;;;;;6.05;5.45;;;;;;;;;;4922006;29;20047;-66
2024/02/09 03:48:19;;;;;;;7.63;5.38;;;;;;;;;;4929366;29;20035;-66
2024/02/09 03:50:45;;;;;;;3.97;3.72;;;;;;;;;;4920728;29;20040;-66
2024/02/09 03:53:12;;;;;;;4.53;4.22;;;;;;;;;;4926543;29;20031;-65
2024/02/09 03:55:41;;;;;;;4.20;3.78;;;;;;;;;;4923300;29;20632;-66
2024/02/09 03:58:07;;;;;;;6.63;6.00;;;;;;;;;;4927253;29;20546;-66
2024/02/09 04:00:33;;;;;;;6.70;4.78;;;;;;;;;;4924603;29;20028;-66
2024/02/09 04:02:59;;;;;;;4.88;4.43;;;;;;;;;;4922204;29;20047;-66
2024/02/09 04:05:25;;;;;;;6.15;4.53;;;;;;;;;;4939204;29;20043;-66
2024/02/09 04:07:51;;;;;;;5.57;4.70;;;;;;;;;;4925049;29;20059;-67
2024/02/09 04:10:20;;;;;;;3.53;3.22;;;;;;;;;;4925896;29;20467;-66
2024/02/09 04:12:46;;;;;;;8.25;4.63;;;;;;;;;;4925714;29;20047;-65
2024/02/09 04:15:12;;;;;;;6.28;5.32;;;;;;;;;;4924074;29;20038;-66
2024/02/09 04:17:38;;;;;;;9.90;7.40;;;;;;;;;;4926379;29;20143;-65
2024/02/09 04:20:04;;;;;;;3.85;3.42;;;;;;;;;;4926018;29;20118;-65
2024/02/09 04:22:30;;;;;;;4.63;4.28;;;;;;;;;;4924829;29;20083;-66
2024/02/09 04:24:57;;;;;;;5.93;5.43;;;;;;;;;;4931695;29;20027;-65
2024/02/09 04:27:23;;;;;;;5.60;4.32;;;;;;;;;;4924776;29;20655;-68
2024/02/09 04:29:49;;;;;;;4.22;3.72;;;;;;;;;;4922198;29;20096;-67
2024/02/09 04:32:15;;;;;;;5.20;4.70;;;;;;;;;;4925541;29;20043;-66
2024/02/09 04:34:41;;;;;;;11.35;4.32;;;;;;;;;;4922839;29;20115;-66
2024/02/09 04:37:07;;;;;;;4.57;4.28;;;;;;;;;;4928425;29;20036;-66
2024/02/09 04:39:33;;;;;;;4.53;4.22;;;;;;;;;;4920956;29;20044;-66
2024/02/09 04:41:58;;;;;;;5.28;4.88;;;;;;;;;;4926351;29;20029;-66
2024/02/09 04:44:24;;;;;;;7.15;5.30;;;;;;;;;;4925945;29;20059;-66
2024/02/09 04:46:50;;;;;;;5.45;4.95;;;;;;;;;;4924556;29;20040;-65
2024/02/09 04:49:17;;;;;;;7.30;4.82;;;;;;;;;;4925517;29;20055;-67
2024/02/09 04:51:44;;;;;;;3.30;3.10;;;;;;;;;;4925131;29;20148;-66
2024/02/09 04:54:09;;;;;;;5.82;4.75;;;;;;;;;;4921545;29;20091;-68
2024/02/09 04:56:35;;;;;;;6.20;5.13;;;;;;;;;;4922201;29;20083;-67
2024/02/09 04:59:04;;;;;;;5.43;4.68;;;;;;;;;;4924875;29;20239;-66
2024/02/09 05:01:31;;;;;;;9.85;5.68;;;;;;;;;;4922996;29;20039;-66
2024/02/09 05:03:57;;;;;;;5.03;4.53;;;;;;;;;;4926273;29;20411;-67
2024/02/09 05:06:32;;;;;;;5.32;4.82;;;;;;;;;;4923266;29;20031;-66
2024/02/09 05:08:58;;;;;;;7.22;6.57;;;;;;;;;;4921716;29;20032;-65
2024/02/09 05:11:28;;;;;;;6.65;5.13;;;;;;;;;;4924963;29;20047;-67
2024/02/09 05:13:55;;;;;;;7.28;6.57;;;;;;;;;;4925243;29;20044;-66
2024/02/09 05:16:21;;;;;;;3.67;3.42;;;;;;;;;;4926431;29;20122;-66
2024/02/09 05:18:50;;;;;;;4.75;3.40;;;;;;;;;;4926556;29;20367;-66
2024/02/09 05:21:17;;;;;;;5.20;4.80;;;;;;;;;;4923287;29;20046;-69
2024/02/09 05:23:43;;;;;;;10.07;4.03;;;;;;;;;;4923502;29;20028;-69
2024/02/09 05:26:09;;;;;;;5.43;5.03;;;;;;;;;;4924753;29;20051;-69
2024/02/09 05:28:43;;;;;;;7.45;5.03;;;;;;;;;;4930373;29;20041;-68
2024/02/09 05:31:21;;;;;;;7.22;5.60;;;;;;;;;;4925203;29;20043;-68
2024/02/09 05:33:47;;;;;;;8.40;6.97;;;;;;;;;;4922644;29;20962;-69
2024/02/09 05:36:19;;;;;;;4.93;4.50;;;;;;;;;;4924123;29;20124;-69
2024/02/09 05:38:46;;;;;;;5.43;4.93;;;;;;;;;;4923438;29;20528;-70
2024/02/09 05:41:12;;;;;;;17.38;7.47;;;;;;;;;;4925345;29;20044;-71
2024/02/09 05:43:39;;;;;;;6.38;4.88;;;;;;;;;;4931038;29;20525;-70
2024/02/09 05:46:05;;;;;;;7.95;6.95;;;;;;;;;;4922082;29;20522;-70
2024/02/09 05:48:31;;;;;;;9.07;5.45;;;;;;;;;;4933111;29;20119;-70
2024/02/09 05:50:57;;;;;;;4.88;4.32;;;;;;;;;;4923113;29;20035;-71
2024/02/09 05:53:23;;;;;;;4.47;4.07;;;;;;;;;;4923887;29;20570;-69
2024/02/09 05:55:51;;;;;;;3.13;2.88;;;;;;;;;;4923785;29;20028;-70
2024/02/09 05:58:17;;;;;;;6.18;5.30;;;;;;;;;;4935670;29;20498;-71
2024/02/09 06:00:43;;;;;;;5.75;5.22;;;;;;;;;;4921609;29;20043;-70
2024/02/09 06:03:09;;;;;;;10.45;5.82;;;;;;;;;;4924288;29;20553;-70
2024/02/09 06:05:40;;;;;;;6.05;3.28;;;;;;;;;;4920219;29;20046;-69
2024/02/09 06:08:09;;;;;;;4.88;3.97;;;;;;;;;;4903848;29;20034;-71
2024/02/09 06:10:36;;;;;;;4.75;4.35;;;;;;;;;;4912789;29;20062;-70
2024/02/09 06:13:02;;;;;;;6.45;4.82;;;;;;;;;;4924199;29;20099;-70
2024/02/09 06:15:30;;;;;;;5.95;5.43;;;;;;;;;;4891934;29;20547;-70
2024/02/09 06:18:02;;;;;;;8.93;6.95;;;;;;;;;;4920953;29;20058;-71
2024/02/09 06:20:28;;;;;;;4.72;4.40;;;;;;;;;;4891528;29;20046;-71
2024/02/09 06:22:54;;;;;;;6.47;5.97;;;;;;;;;;4911196;29;20059;-70
2024/02/09 06:25:20;;;;;;;6.65;5.15;;;;;;;;;;4925727;29;20032;-70
2024/02/09 06:27:47;;;;;;;3.85;3.60;;;;;;;;;;4927135;29;20039;-70
2024/02/09 06:30:14;;;;;;;5.95;5.40;;;;;;;;;;4919254;29;20070;-71
2024/02/09 06:32:40;;;;;;;7.55;6.13;;;;;;;;;;4929835;29;20051;-71
2024/02/09 06:35:06;;;;;;;11.60;7.63;;;;;;;;;;4928212;29;20086;-72
2024/02/09 06:37:32;;;;;;;5.75;5.25;;;;;;;;;;4927885;29;20510;-70
2024/02/09 06:39:59;;;;;;;6.15;4.80;;;;;;;;;;4920023;29;20062;-70
2024/02/09 06:42:25;;;;;;;6.97;5.60;;;;;;;;;;4924287;29;20058;-72
2024/02/09 06:44:50;;;;;;;10.55;7.20;;;;;;;;;;4924992;29;20072;-71
2024/02/09 06:47:16;;;;;;;8.85;5.57;;;;;;;;;;4920296;29;20035;-73
2024/02/09 06:49:45;;;;;;;8.18;7.28;;;;;;;;;;4905920;29;20055;-71
2024/02/09 06:52:11;;;;;;;7.03;5.90;;;;;;;;;;4922915;29;20769;-71
2024/02/09 06:54:37;;;;;;;8.88;6.78;;;;;;;;;;4921268;29;20116;-70
2024/02/09 06:57:03;;;;;;;5.03;4.55;;;;;;;;;;4929629;29;20043;-69
2024/02/09 06:59:29;;;;;;;3.95;3.67;;;;;;;;;;4918677;29;20035;-71
2024/02/09 07:02:00;;;;;;;10.13;6.28;;;;;;;;;;4912665;29;20040;-71
2024/02/09 07:04:25;;;;;;;9.95;6.18;;;;;;;;;;4926613;29;20039;-71
2024/02/09 07:06:51;;;;;;;12.25;8.82;;;;;;;;;;4926952;29;20458;-71
2024/02/09 07:09:18;;;;;;;3.47;3.28;;;;;;;;;;4927984;29;20118;-70
2024/02/09 07:11:48;;;;;;;11.50;8.13;;;;;;;;;;4921674;29;20161;-70
2024/02/09 07:14:14;;;;;;;6.80;5.32;;;;;;;;;;4916401;29;20032;-69
2024/02/09 07:16:41;;;;;;;10.00;5.70;;;;;;;;;;4930380;29;20047;-69
2024/02/09 07:19:09;;;;;;;7.47;3.90;;;;;;;;;;4903199;29;20119;-69
2024/02/09 07:21:42;;;;;;;4.88;4.30;;;;;;;;;;4911883;29;20119;-69
2024/02/09 07:24:08;;;;;;;5.68;5.10;;;;;;;;;;4910734;29;20071;-69
2024/02/09 07:26:34;;;;;;;8.20;6.35;;;;;;;;;;4934715;29;20111;-71
2024/02/09 07:29:00;;;;;;;7.03;5.63;;;;;;;;;;4932454;29;20032;-70
2024/02/09 07:31:26;;;;;;;6.50;5.57;;;;;;;;;;4913932;29;20047;-71
2024/02/09 07:33:52;;;;;;;5.43;4.93;;;;;;;;;;4927212;29;20555;-69
2024/02/09 07:36:18;;;;;;;3.10;2.90;;;;;;;;;;4927607;29;20515;-69
2024/02/09 07:38:44;;;;;;;7.88;5.53;;;;;;;;;;4913637;29;20510;-70
2024/02/09 07:41:10;;;;;;;3.15;2.95;;;;;;;;;;4929720;29;20064;-70
2024/02/09 07:43:36;;;;;;;2.50;2.40;;;;;;;;;;4929207;29;20035;-71
2024/02/09 07:46:03;;;;;;;7.63;5.72;;;;;;;;;;4913736;29;20040;-70
2024/02/09 07:48:29;;;;;;;6.35;4.85;;;;;;;;;;4930969;29;20078;-69
2024/02/09 07:50:57;;;;;;;6.90;5.68;;;;;;;;;;4928020;29;20048;-69
2024/02/09 07:53:23;;;;;;;5.63;4.53;;;;;;;;;;4930809;29;20039;-70
2024/02/09 07:55:50;;;;;;;4.18;3.85;;;;;;;;;;4928267;29;20568;-70
2024/02/09 07:58:36;;;;;;;7.68;5.43;;;;;;;;;;4915580;29;20554;-70
2024/02/09 08:01:02;;;;;;;3.45;3.17;;;;;;;;;;4930815;29;20044;-71
2024/02/09 08:03:28;;;;;;;9.02;5.40;;;;;;;;;;4930994;29;20466;-71
2024/02/09 08:05:54;;;;;;;8.70;6.05;;;;;;;;;;4943683;29;20566;-70
2024/02/09 08:08:20;;;;;;;13.57;8.10;;;;;;;;;;4929583;29;20099;-70
2024/02/09 08:10:46;;;;;;;6.13;5.53;;;;;;;;;;4929183;29;20087;-70
2024/02/09 08:13:12;;;;;;;4.30;3.63;;;;;;;;;;4931441;29;20043;-70
2024/02/09 08:15:38;;;;;;;4.40;4.05;;;;;;;;;;4929732;29;20035;-69
2024/02/09 08:18:04;;;;;;;5.18;4.05;;;;;;;;;;4932801;29;20059;-69
2024/02/09 08:20:36;;;;;;;8.45;6.65;;;;;;;;;;4933029;29;20031;-69
2024/02/09 08:23:02;;;;;;;5.75;5.25;;;;;;;;;;4934206;29;20034;-70
2024/02/09 08:25:28;;;;;;;6.53;5.75;;;;;;;;;;4917002;29;20134;-71
2024/02/09 08:27:55;;;;;;;6.60;6.00;;;;;;;;;;4933732;29;20063;-70
2024/02/09 08:30:21;;;;;;;5.82;5.22;;;;;;;;;;4933565;29;20035;-70
2024/02/09 08:32:47;;;;;;;10.43;6.75;;;;;;;;;;4932236;29;20066;-71
2024/02/09 08:35:13;;;;;;;6.65;5.97;;;;;;;;;;4933751;29;20031;-69
2024/02/09 08:37:40;;;;;;;10.77;6.20;;;;;;;;;;4932189;29;20036;-70
2024/02/09 08:40:06;;;;;;;9.82;7.35;;;;;;;;;;4933753;29;20045;-69
2024/02/09 08:42:33;;;;;;;9.32;6.07;;;;;;;;;;4933731;29;20039;-71
2024/02/09 08:45:00;;;;;;;7.32;4.72;;;;;;;;;;4934317;29;20035;-71
2024/02/09 08:47:26;;;;;;;9.45;7.07;;;;;;;;;;4932274;29;20031;-71
2024/02/09 08:49:52;;;;;;;13.52;7.93;;;;;;;;;;4916296;29;20035;-70
2024/02/09 08:52:18;;;;;;;8.50;7.63;;;;;;;;;;4916182;29;20565;-70
2024/02/09 08:54:45;;;;;;;7.57;6.75;;;;;;;;;;4933527;29;20099;-70
2024/02/09 08:57:12;;;;;;;5.63;5.07;;;;;;;;;;4934030;29;20126;-69
2024/02/09 08:59:40;;;;;;;5.53;4.55;;;;;;;;;;4931820;29;20556;-69
2024/02/09 09:02:07;;;;;;;11.20;6.85;;;;;;;;;;4933234;29;20039;-69
2024/02/09 09:04:33;;;;;;;6.18;5.57;;;;;;;;;;4933150;29;20035;-70
2024/02/09 09:07:00;;;;;;;7.00;5.97;;;;;;;;;;4931900;29;20058;-69
2024/02/09 09:09:26;;;;;;;6.50;5.75;;;;;;;;;;4931969;29;20511;-70
2024/02/09 09:11:56;;;;;;;5.18;4.78;;;;;;;;;;4915658;29;20054;-70
2024/02/09 09:14:22;;;;;;;5.45;3.80;;;;;;;;;;4933027;29;20090;-71
2024/02/09 09:16:48;;;;;;;10.32;6.05;;;;;;;;;;4915744;29;20047;-72
2024/02/09 09:19:14;;;;;;;3.90;3.60;;;;;;;;;;4931542;29;20564;-72
2024/02/09 09:21:41;;;;;;;4.85;4.50;;;;;;;;;;4932627;29;20047;-71
2024/02/09 09:24:08;;;;;;;7.18;5.35;;;;;;;;;;4933050;28;20031;-71
2024/02/09 09:26:33;;;;;;;7.70;6.18;;;;;;;;;;4932655;29;20091;-72
2024/02/09 09:29:00;;;;;;;3.10;2.88;;;;;;;;;;4930550;29;20035;-69
2024/02/09 09:31:26;;;;;;;5.10;4.65;;;;;;;;;;4932499;28;20040;-70
2024/02/09 09:33:52;;;;;;;5.10;4.60;;;;;;;;;;4932443;29;20031;-70
2024/02/09 09:36:19;;;;;;;5.70;5.10;;;;;;;;;;4932679;29;20094;-71
2024/02/09 09:38:45;;;;;;;5.03;4.00;;;;;;;;;;4932398;29;20110;-71
2024/02/09 09:41:10;;;;;;;5.63;5.07;;;;;;;;;;4915449;29;20130;-69
2024/02/09 09:43:37;;;;;;;6.20;5.13;;;;;;;;;;4932556;29;20510;-68
2024/02/09 09:46:05;;;;;;;8.02;5.00;;;;;;;;;;4931028;29;20110;-69
2024/02/09 09:48:33;;;;;;;4.13;3.22;;;;;;;;;;4932490;29;20042;-70
2024/02/09 09:50:59;;;;;;;3.08;2.85;;;;;;;;;;4934055;29;20032;-70
2024/02/09 09:53:29;;;;;;;5.03;4.50;;;;;;;;;;4937584;29;20035;-71
2024/02/09 09:55:59;;;;;;;3.75;3.53;;;;;;;;;;4930789;29;20080;-71
2024/02/09 09:58:25;;;;;;;5.43;3.90;;;;;;;;;;4931536;29;20163;-72
2024/02/09 10:00:51;;;;;;;4.05;3.72;;;;;;;;;;4930759;29;20040;-70
2024/02/09 10:03:17;;;;;;;4.03;3.65;;;;;;;;;;4932136;29;20415;-70
2024/02/09 10:05:44;;;;;;;3.75;3.33;;;;;;;;;;4932163;29;20092;-69
2024/02/09 10:08:10;;;;;;;6.82;4.88;;;;;;;;;;4931059;29;20047;-68
2024/02/09 10:10:37;;;;;;;3.05;2.85;;;;;;;;;;4932017;29;20036;-70
2024/02/09 10:13:12;;;;;;;2.22;2.13;;;;;;;;;;4931834;29;20364;-69
2024/02/09 10:15:40;;;;;;;3.70;3.40;;;;;;;;;;4930661;29;20035;-70
2024/02/09 10:18:10;;;;;;;4.80;3.90;;;;;;;;;;4930372;29;20135;-69
2024/02/09 10:20:42;;;;;;;5.63;3.63;;;;;;;;;;4932238;29;20082;-70
2024/02/09 10:23:08;;;;;;;4.68;4.13;;;;;;;;;;4932062;28;20502;-69
2024/02/09 10:25:34;;;;;;;4.45;4.15;;;;;;;;;;4931937;29;20040;-69
2024/02/09 10:28:00;;;;;;;4.53;3.63;;;;;;;;;;4915122;29;20039;-68
2024/02/09 10:30:27;;;;;;;4.30;3.88;;;;;;;;;;4932043;29;20051;-70
2024/02/09 10:32:53;;;;;;;4.25;3.85;;;;;;;;;;4930112;29;20126;-68
2024/02/09 10:35:19;;;;;;;2.55;2.42;;;;;;;;;;4930475;29;20071;-69
2024/02/09 10:37:48;;;;;;;4.47;3.50;;;;;;;;;;4914431;29;20031;-68
2024/02/09 10:40:14;;;;;;;2.92;2.72;;;;;;;;;;4930150;29;20046;-68
2024/02/09 10:42:40;;;;;;;4.10;3.78;;;;;;;;;;4931628;29;20043;-69
2024/02/09 10:45:12;;;;;;;4.25;3.85;;;;;;;;;;4914673;29;20102;-69
2024/02/09 10:47:38;;;;;;;4.32;3.95;;;;;;;;;;4932895;28;20050;-68
2024/02/09 10:50:05;;;;;;;17.65;2.55;;;;;;;;;;4931220;28;20039;-68
2024/02/09 10:52:32;;;;;;;3.65;3.40;;;;;;;;;;4898750;29;20051;-68
2024/02/09 10:54:59;;;;;;;11.15;4.63;;;;;;;;;;4929690;29;20546;-70
2024/02/09 10:57:25;;;;;;;5.95;5.03;;;;;;;;;;4930018;29;20051;-68
2024/02/09 10:59:51;;;;;;;5.00;4.43;;;;;;;;;;4914257;29;20072;-68
2024/02/09 11:02:17;;;;;;;7.72;5.55;;;;;;;;;;4930115;29;20039;-69
2024/02/09 11:04:43;;;;;;;4.45;4.10;;;;;;;;;;4931414;29;20506;-69
2024/02/09 11:07:09;;;;;;;4.25;3.92;;;;;;;;;;4930064;29;20051;-70
2024/02/09 11:09:36;;;;;;;5.43;3.65;;;;;;;;;;4930427;29;20586;-69
2024/02/09 11:12:06;;;;;;;4.60;4.20;;;;;;;;;;4930326;29;20051;-69
2024/02/09 11:14:36;;;;;;;5.78;3.45;;;;;;;;;;4932338;29;20090;-69
2024/02/09 11:17:06;;;;;;;4.60;4.20;;;;;;;;;;4931568;29;20040;-69
2024/02/09 11:19:39;;;;;;;3.07;2.87;;;;;;;;;;4930235;29;20119;-68
2024/02/09 11:22:06;;;;;;;3.75;3.47;;;;;;;;;;4914050;29;20043;-69
2024/02/09 11:24:33;;;;;;;2.70;2.58;;;;;;;;;;4930205;29;20082;-69
2024/02/09 11:26:59;;;;;;;3.28;3.08;;;;;;;;;;4929528;29;20531;-67
2024/02/09 11:29:25;;;;;;;3.95;3.63;;;;;;;;;;4931184;29;20058;-69
2024/02/09 11:31:52;;;;;;;3.55;3.30;;;;;;;;;;4929564;29;20134;-69
2024/02/09 11:34:18;;;;;;;3.30;3.00;;;;;;;;;;4931093;29;20040;-69
2024/02/09 11:36:44;;;;;;;4.38;4.05;;;;;;;;;;4913956;29;20047;-71
2024/02/09 11:39:10;;;;;;;3.10;2.90;;;;;;;;;;4931158;28;20499;-70
2024/02/09 11:41:36;;;;;;;3.90;3.60;;;;;;;;;;4913987;29;20043;-70
2024/02/09 11:44:03;;;;;;;4.13;3.72;;;;;;;;;;4929850;29;20472;-70
2024/02/09 11:46:29;;;;;;;4.22;3.83;;;;;;;;;;4929792;29;20036;-69
2024/02/09 11:48:56;;;;;;;2.60;2.45;;;;;;;;;;4929380;29;20109;-69
2024/02/09 11:51:22;;;;;;;2.47;2.38;;;;;;;;;;4932649;28;20489;-69
2024/02/09 11:53:51;;;;;;;2.40;2.30;;;;;;;;;;4934457;29;20050;-70
2024/02/09 11:56:18;;;;;;;2.55;2.45;;;;;;;;;;4933476;29;20039;-70
2024/02/09 11:58:44;;;;;;;3.45;3.15;;;;;;;;;;4934632;29;20040;-70
2024/02/09 12:01:10;;;;;;;5.88;3.47;;;;;;;;;;4917536;29;20032;-70
2024/02/09 12:03:36;;;;;;;5.63;4.40;;;;;;;;;;4934424;29;20515;-70
2024/02/09 12:06:02;;;;;;;2.83;2.58;;;;;;;;;;4934284;29;20175;-70
2024/02/09 12:08:29;;;;;;;3.78;3.00;;;;;;;;;;4933239;29;20197;-67
2024/02/09 12:10:56;;;;;;;3.20;2.90;;;;;;;;;;4934034;29;20127;-71
2024/02/09 12:13:22;;;;;;;2.35;2.25;;;;;;;;;;4932974;29;20103;-72
2024/02/09 12:15:49;;;;;;;2.95;2.75;;;;;;;;;;4934532;29;20505;-72
2024/02/09 12:18:18;;;;;;;5.70;3.00;;;;;;;;;;4917045;29;20187;-69
2024/02/09 12:21:02;;;;;;;2.30;2.20;;;;;;;;;;4932937;29;20067;-71
2024/02/09 12:23:28;;;;;;;4.60;4.10;;;;;;;;;;4934155;29;20028;-72
2024/02/09 12:26:13;;;;;;;2.33;2.22;;;;;;;;;;4933970;29;20043;-72
2024/02/09 12:28:39;;;;;;;3.15;2.88;;;;;;;;;;4934108;29;20046;-70
2024/02/09 12:31:07;;;;;;;2.38;2.20;;;;;;;;;;4933570;29;20119;-72
2024/02/09 12:33:35;;;;;;;3.13;2.97;;;;;;;;;;4932880;29;20078;-73
2024/02/09 12:36:06;;;;;;;2.60;2.40;;;;;;;;;;4917069;29;20031;-72
2024/02/09 12:38:31;;;;;;;4.25;2.70;;;;;;;;;;4933683;29;20134;-72
2024/02/09 12:40:57;;;;;;;2.95;2.75;;;;;;;;;;4934166;29;20825;-72
2024/02/09 12:43:23;;;;;;;3.30;3.10;;;;;;;;;;4935490;29;20086;-72
2024/02/09 12:45:49;;;;;;;2.85;2.75;;;;;;;;;;4936685;29;20039;-73
2024/02/09 12:48:20;;;;;;;2.10;2.00;;;;;;;;;;4933410;29;20036;-73
2024/02/09 12:50:47;;;;;;;2.63;2.53;;;;;;;;;;4934283;29;20035;-73
2024/02/09 12:53:14;;;;;;;2.70;2.55;;;;;;;;;;4932787;29;20110;-72
2024/02/09 12:55:40;;;;;;;3.72;3.50;;;;;;;;;;4934050;29;20036;-72
2024/02/09 12:58:09;;;;;;;4.22;3.83;;;;;;;;;;4932175;29;20669;-72
2024/02/09 13:00:35;;;;;;;2.70;2.50;;;;;;;;;;4932277;29;20098;-73
2024/02/09 13:03:01;;;;;;;4.28;3.50;;;;;;;;;;4915158;29;20515;-72
2024/02/09 13:05:30;;;;;;;5.10;3.15;;;;;;;;;;4932358;29;20506;-72
2024/02/09 13:07:57;;;;;;;2.97;2.72;;;;;;;;;;4916248;29;20040;-71
2024/02/09 13:10:23;;;;;;;2.05;1.95;;;;;;;;;;4933131;29;20118;-72
2024/02/09 13:12:50;;;;;;;2.40;2.20;;;;;;;;;;4933046;29;20043;-72
2024/02/09 13:15:15;;;;;;;3.10;2.63;;;;;;;;;;4931415;29;20114;-71
2024/02/09 13:17:41;;;;;;;2.38;2.28;;;;;;;;;;4931588;29;20102;-71
2024/02/09 13:20:08;;;;;;;4.68;3.25;;;;;;;;;;4931588;29;20418;-72
2024/02/09 13:22:37;;;;;;;3.00;2.80;;;;;;;;;;4933061;28;20450;-70
2024/02/09 13:25:04;;;;;;;2.88;2.67;;;;;;;;;;4916347;29;20388;-72
2024/02/09 13:27:31;;;;;;;2.72;2.53;;;;;;;;;;4931805;29;20047;-71
2024/02/09 13:29:57;;;;;;;2.38;2.28;;;;;;;;;;4932616;29;20032;-71
2024/02/09 13:32:31;;;;;;;2.38;2.28;;;;;;;;;;4931181;29;20059;-72
2024/02/09 13:34:58;;;;;;;4.10;3.08;;;;;;;;;;4932214;29;20031;-72
2024/02/09 13:37:24;;;;;;;3.53;3.28;;;;;;;;;;4934084;29;20039;-69
2024/02/09 13:39:52;;;;;;;4.70;4.05;;;;;;;;;;4933880;28;20034;-70
2024/02/09 13:42:21;;;;;;;3.35;3.15;;;;;;;;;;4932360;29;20471;-70
2024/02/09 13:44:47;;;;;;;4.38;3.70;;;;;;;;;;4931583;29;20087;-70
2024/02/09 13:47:13;;;;;;;3.90;3.58;;;;;;;;;;4932711;29;20052;-70
2024/02/09 13:49:39;;;;;;;4.65;4.25;;;;;;;;;;4933030;29;20139;-70
2024/02/09 13:52:05;;;;;;;4.30;3.90;;;;;;;;;;4932879;29;20051;-70
2024/02/09 13:54:32;;;;;;;2.88;2.65;;;;;;;;;;4932667;29;20503;-69
2024/02/09 13:56:58;;;;;;;2.53;2.35;;;;;;;;;;4924898;29;20035;-70
2024/02/09 13:59:26;;;;;;;4.90;3.60;;;;;;;;;;4920738;29;20152;-69
2024/02/09 14:01:52;;;;;;;3.47;3.17;;;;;;;;;;4932617;29;20039;-70
2024/02/09 14:04:17;;;;;;;3.63;3.33;;;;;;;;;;4919407;29;20032;-69
2024/02/09 14:06:43;;;;;;;3.25;3.05;;;;;;;;;;4913182;29;20044;-70
2024/02/09 14:09:09;;;;;;;3.25;3.03;;;;;;;;;;4912942;29;20067;-69
2024/02/09 14:11:38;;;;;;;3.00;2.78;;;;;;;;;;4914749;29;20060;-69
2024/02/09 14:14:04;;;;;;;2.53;2.33;;;;;;;;;;4930027;29;20055;-69
2024/02/09 14:16:34;;;;;;;3.35;3.05;;;;;;;;;;4930682;29;20387;-72
2024/02/09 14:19:04;;;;;;;3.03;2.30;;;;;;;;;;4931697;29;20091;-72
2024/02/09 14:21:31;;;;;;;2.63;2.53;;;;;;;;;;4931942;29;20043;-72
2024/02/09 14:23:57;;;;;;;3.00;2.80;;;;;;;;;;4929462;29;21865;-71
2024/02/09 14:26:23;;;;;;;2.33;2.22;;;;;;;;;;4926847;29;20114;-72
2024/02/09 14:28:49;;;;;;;2.42;2.22;;;;;;;;;;4924754;29;20116;-71
2024/02/09 14:31:14;;;;;;;2.53;2.42;;;;;;;;;;4923271;29;20044;-72
2024/02/09 14:33:40;;;;;;;3.80;3.20;;;;;;;;;;4923290;29;20040;-72
2024/02/09 14:36:06;;;;;;;4.22;3.80;;;;;;;;;;4919365;29;20651;-73
2024/02/09 14:38:32;;;;;;;4.00;3.60;;;;;;;;;;4895622;29;20083;-73
2024/02/09 14:40:59;;;;;;;4.32;3.92;;;;;;;;;;4909642;29;20514;-73
2024/02/09 14:43:25;;;;;;;4.53;3.33;;;;;;;;;;4910685;29;20059;-72
2024/02/09 14:45:51;;;;;;;3.22;3.03;;;;;;;;;;4912040;29;20424;-73
2024/02/09 14:48:17;;;;;;;3.50;3.20;;;;;;;;;;4912912;29;20036;-73
2024/02/09 14:50:43;;;;;;;3.72;3.42;;;;;;;;;;4912577;29;20090;-73
2024/02/09 14:53:10;;;;;;;3.60;3.28;;;;;;;;;;4913323;29;20131;-74
2024/02/09 14:55:36;;;;;;;3.95;3.67;;;;;;;;;;4913459;29;20415;-73
2024/02/09 14:58:02;;;;;;;4.40;3.33;;;;;;;;;;4929235;29;20051;-73
2024/02/09 15:00:34;;;;;;;3.25;3.05;;;;;;;;;;4931996;29;20463;-73
2024/02/09 15:03:03;;;;;;;3.20;2.90;;;;;;;;;;4931808;29;20042;-73
2024/02/09 15:05:29;;;;;;;3.17;2.90;;;;;;;;;;4930902;29;20043;-73
2024/02/09 15:07:58;;;;;;;2.35;2.25;;;;;;;;;;4908716;29;20035;-71
2024/02/09 15:10:25;;;;;;;2.92;2.70;;;;;;;;;;4914800;29;20043;-73
2024/02/09 15:12:50;;;;;;;2.80;2.60;;;;;;;;;;4931558;29;20051;-75
2024/02/09 15:15:21;;;;;;;2.67;2.55;;;;;;;;;;4924919;29;20040;-72
2024/02/09 15:17:47;;;;;;;3.33;3.03;;;;;;;;;;4912413;29;20064;-72
2024/02/09 15:20:13;;;;;;;3.03;2.83;;;;;;;;;;4911938;29;20061;-71
2024/02/09 15:22:39;;;;;;;2.58;2.47;;;;;;;;;;4912011;29;20040;-72
2024/02/09 15:25:07;;;;;;;3.80;3.28;;;;;;;;;;4928672;29;20043;-72
2024/02/09 15:27:33;;;;;;;3.13;2.92;;;;;;;;;;4935426;29;20048;-71
2024/02/09 15:29:59;;;;;;;3.17;2.97;;;;;;;;;;4934358;29;20426;-73
2024/02/09 15:32:25;;;;;;;4.88;2.30;;;;;;;;;;4934014;29;20044;-73
2024/02/09 15:34:51;;;;;;;3.42;3.15;;;;;;;;;;4934783;29;20503;-73
2024/02/09 15:37:17;;;;;;;4.38;3.38;;;;;;;;;;4937486;29;20090;-72
2024/02/09 15:39:43;;;;;;;5.05;4.63;;;;;;;;;;4942165;29;20035;-73
2024/02/09 15:42:09;;;;;;;4.25;3.08;;;;;;;;;;4911621;29;20036;-75
2024/02/09 15:44:36;;;;;;;4.38;2.92;;;;;;;;;;4918222;29;20075;-73
2024/02/09 15:47:02;;;;;;;2.83;2.63;;;;;;;;;;4919225;29;20064;-73
2024/02/09 15:49:30;;;;;;;5.38;3.63;;;;;;;;;;4919299;29;20518;-70
2024/02/09 15:51:56;;;;;;;3.13;2.92;;;;;;;;;;4927715;29;20044;-72
2024/02/09 15:54:22;;;;;;;4.10;3.25;;;;;;;;;;4934859;29;20035;-73
2024/02/09 15:56:48;;;;;;;2.55;2.42;;;;;;;;;;4934859;29;20055;-72
2024/02/09 15:59:15;;;;;;;2.72;2.53;;;;;;;;;;4934220;29;21524;-71
2024/02/09 16:01:41;;;;;;;2.10;2.00;;;;;;;;;;4935787;29;20054;-72
2024/02/09 16:04:07;;;;;;;3.35;3.10;;;;;;;;;;4935050;29;20032;-71
2024/02/09 16:06:33;;;;;;;2.67;2.47;;;;;;;;;;4912613;29;20052;-71
2024/02/09 16:09:00;;;;;;;2.50;2.30;;;;;;;;;;4934597;29;20042;-72
2024/02/09 16:11:32;;;;;;;2.88;2.47;;;;;;;;;;4932196;29;20126;-72
2024/02/09 16:14:06;;;;;;;3.08;2.88;;;;;;;;;;4932199;29;20046;-72
2024/02/09 16:16:45;;;;;;;2.28;2.17;;;;;;;;;;4933635;29;20039;-72
2024/02/09 16:19:20;;;;;;;4.22;3.83;;;;;;;;;;4933368;29;20167;-72
2024/02/09 16:21:47;;;;;;;3.55;3.25;;;;;;;;;;4935832;29;20578;-73
2024/02/09 16:24:13;;;;;;;4.57;4.18;;;;;;;;;;4935744;29;20151;-73
2024/02/09 16:26:39;;;;;;;2.85;2.75;;;;;;;;;;4934882;29;20577;-72
2024/02/09 16:29:08;;;;;;;3.78;3.08;;;;;;;;;;4934008;29;20135;-72